sensor_id;sensor_type;location;lat;lon;timestamp;temperature;humidity
22734;DHT22;11534;51.994;5.692;2023-05-10T00:00:57;14.00;99.90
22734;DHT22;11534;51.994;5.692;2023-05-10T00:03:22;14.00;99.90
22734;DHT22;11534;51.994;5.692;2023-05-10T00:05:48;14.00;99.90
22734;DHT22;11534;51.994;5.692;2023-05-10T00:08:14;14.00;99.90
22734;DHT22;11534;51.994;5.692;2023-05-10T00:10:40;14.00;99.90
22734;DHT22;11534;51.994;5.692;2023-05-10T00:13:06;13.90;99.90
22734;DHT22;11534;51.994;5.692;2023-05-10T00:15:31;14.00;99.90
22734;DHT22;11534;51.994;5.692;2023-05-10T00:17:57;14.00;99.90
22734;DHT22;11534;51.994;5.692;2023-05-10T00:20:23;14.00;99.90
22734;DHT22;11534;51.994;5.692;2023-05-10T00:22:49;14.00;99.90
22734;DHT22;11534;51.994;5.692;2023-05-10T00:25:14;14.00;99.90
22734;DHT22;11534;51.994;5.692;2023-05-10T00:27:40;14.00;99.90
22734;DHT22;11534;51.994;5.692;2023-05-10T00:30:06;14.00;99.90
22734;DHT22;11534;51.994;5.692;2023-05-10T00:32:32;14.00;99.90
22734;DHT22;11534;51.994;5.692;2023-05-10T00:34:58;14.00;99.90
22734;DHT22;11534;51.994;5.692;2023-05-10T00:37:23;14.00;99.90
22734;DHT22;11534;51.994;5.692;2023-05-10T00:39:49;14.00;99.90
22734;DHT22;11534;51.994;5.692;2023-05-10T00:42:15;14.00;99.90
22734;DHT22;11534;51.994;5.692;2023-05-10T00:44:40;14.00;99.90
22734;DHT22;11534;51.994;5.692;2023-05-10T00:47:06;14.00;99.90
22734;DHT22;11534;51.994;5.692;2023-05-10T00:49:32;14.00;99.90
22734;DHT22;11534;51.994;5.692;2023-05-10T00:51:58;14.00;99.90
22734;DHT22;11534;51.994;5.692;2023-05-10T00:54:24;13.90;99.90
22734;DHT22;11534;51.994;5.692;2023-05-10T00:56:50;14.00;99.90
22734;DHT22;11534;51.994;5.692;2023-05-10T00:59:16;13.90;99.90
22734;DHT22;11534;51.994;5.692;2023-05-10T01:01:46;14.00;99.90
22734;DHT22;11534;51.994;5.692;2023-05-10T01:04:12;13.90;99.90
22734;DHT22;11534;51.994;5.692;2023-05-10T01:06:42;13.90;99.90
22734;DHT22;11534;51.994;5.692;2023-05-10T01:09:07;14.00;99.90
22734;DHT22;11534;51.994;5.692;2023-05-10T01:11:38;14.00;99.90
22734;DHT22;11534;51.994;5.692;2023-05-10T01:14:05;14.00;99.90
22734;DHT22;11534;51.994;5.692;2023-05-10T01:16:35;14.00;99.90
22734;DHT22;11534;51.994;5.692;2023-05-10T01:19:01;14.00;99.90
22734;DHT22;11534;51.994;5.692;2023-05-10T01:21:32;14.00;99.90
22734;DHT22;11534;51.994;5.692;2023-05-10T01:34:35;14.00;99.90
22734;DHT22;11534;51.994;5.692;2023-05-10T01:37:13;14.00;99.90
22734;DHT22;11534;51.994;5.692;2023-05-10T01:42:48;14.00;99.90
22734;DHT22;11534;51.994;5.692;2023-05-10T01:45:24;14.00;99.90
22734;DHT22;11534;51.994;5.692;2023-05-10T01:48:08;14.00;99.90
22734;DHT22;11534;51.994;5.692;2023-05-10T01:50:36;14.00;99.90
22734;DHT22;11534;51.994;5.692;2023-05-10T01:53:03;14.00;99.90
22734;DHT22;11534;51.994;5.692;2023-05-10T01:55:41;14.00;99.90
22734;DHT22;11534;51.994;5.692;2023-05-10T01:58:11;14.10;99.90
22734;DHT22;11534;51.994;5.692;2023-05-10T02:00:44;14.10;99.90
22734;DHT22;11534;51.994;5.692;2023-05-10T02:03:12;14.10;99.90
22734;DHT22;11534;51.994;5.692;2023-05-10T02:05:40;14.10;99.90
22734;DHT22;11534;51.994;5.692;2023-05-10T02:08:07;14.10;99.90
22734;DHT22;11534;51.994;5.692;2023-05-10T02:10:37;14.10;99.90
22734;DHT22;11534;51.994;5.692;2023-05-10T02:13:05;14.00;99.90
22734;DHT22;11534;51.994;5.692;2023-05-10T02:15:32;14.00;99.90
22734;DHT22;11534;51.994;5.692;2023-05-10T02:18:00;14.10;99.90
22734;DHT22;11534;51.994;5.692;2023-05-10T02:20:27;14.10;99.90
22734;DHT22;11534;51.994;5.692;2023-05-10T02:22:55;14.10;99.90
22734;DHT22;11534;51.994;5.692;2023-05-10T02:25:22;14.10;99.90
22734;DHT22;11534;51.994;5.692;2023-05-10T02:27:49;14.00;99.90
22734;DHT22;11534;51.994;5.692;2023-05-10T02:30:15;14.00;99.90
22734;DHT22;11534;51.994;5.692;2023-05-10T02:32:42;14.00;99.90
22734;DHT22;11534;51.994;5.692;2023-05-10T02:35:09;14.00;99.90
22734;DHT22;11534;51.994;5.692;2023-05-10T02:37:37;14.00;99.90
22734;DHT22;11534;51.994;5.692;2023-05-10T02:40:04;14.00;99.90
22734;DHT22;11534;51.994;5.692;2023-05-10T02:42:35;14.00;99.90
22734;DHT22;11534;51.994;5.692;2023-05-10T02:45:03;14.00;99.90
22734;DHT22;11534;51.994;5.692;2023-05-10T02:47:30;14.00;99.90
22734;DHT22;11534;51.994;5.692;2023-05-10T02:49:56;14.00;99.90
22734;DHT22;11534;51.994;5.692;2023-05-10T02:52:27;14.00;99.90
22734;DHT22;11534;51.994;5.692;2023-05-10T02:54:56;14.00;99.90
22734;DHT22;11534;51.994;5.692;2023-05-10T02:57:27;14.00;99.90
22734;DHT22;11534;51.994;5.692;2023-05-10T02:59:54;14.00;99.90
22734;DHT22;11534;51.994;5.692;2023-05-10T03:02:20;13.90;99.90
22734;DHT22;11534;51.994;5.692;2023-05-10T03:04:46;14.00;99.90
22734;DHT22;11534;51.994;5.692;2023-05-10T03:07:12;14.00;99.90
22734;DHT22;11534;51.994;5.692;2023-05-10T03:09:38;13.90;99.90
22734;DHT22;11534;51.994;5.692;2023-05-10T03:12:27;13.90;99.90
22734;DHT22;11534;51.994;5.692;2023-05-10T03:17:55;13.80;99.90
22734;DHT22;11534;51.994;5.692;2023-05-10T03:20:29;13.80;99.90
22734;DHT22;11534;51.994;5.692;2023-05-10T03:23:04;13.80;99.90
22734;DHT22;11534;51.994;5.692;2023-05-10T03:25:33;13.80;99.90
22734;DHT22;11534;51.994;5.692;2023-05-10T03:28:01;13.80;99.90
22734;DHT22;11534;51.994;5.692;2023-05-10T03:30:28;13.80;99.90
22734;DHT22;11534;51.994;5.692;2023-05-10T03:32:54;13.80;99.90
22734;DHT22;11534;51.994;5.692;2023-05-10T03:35:20;13.80;99.90
22734;DHT22;11534;51.994;5.692;2023-05-10T03:37:45;13.80;99.90
22734;DHT22;11534;51.994;5.692;2023-05-10T03:40:13;13.80;99.90
22734;DHT22;11534;51.994;5.692;2023-05-10T03:42:38;13.80;99.90
22734;DHT22;11534;51.994;5.692;2023-05-10T03:45:05;13.70;99.90
22734;DHT22;11534;51.994;5.692;2023-05-10T03:47:31;13.80;99.90
22734;DHT22;11534;51.994;5.692;2023-05-10T03:49:56;13.80;99.90
22734;DHT22;11534;51.994;5.692;2023-05-10T03:52:22;13.80;99.90
22734;DHT22;11534;51.994;5.692;2023-05-10T03:54:48;13.70;99.90
22734;DHT22;11534;51.994;5.692;2023-05-10T03:57:13;13.70;99.90
22734;DHT22;11534;51.994;5.692;2023-05-10T03:59:39;13.70;99.90
22734;DHT22;11534;51.994;5.692;2023-05-10T04:02:04;13.70;99.90
22734;DHT22;11534;51.994;5.692;2023-05-10T04:04:31;13.70;99.90
22734;DHT22;11534;51.994;5.692;2023-05-10T04:06:56;13.60;99.90
22734;DHT22;11534;51.994;5.692;2023-05-10T04:09:22;13.70;99.90
22734;DHT22;11534;51.994;5.692;2023-05-10T04:11:47;13.70;99.90
22734;DHT22;11534;51.994;5.692;2023-05-10T04:14:13;13.70;99.90
22734;DHT22;11534;51.994;5.692;2023-05-10T04:16:39;13.60;99.90
22734;DHT22;11534;51.994;5.692;2023-05-10T04:19:04;13.70;99.90
22734;DHT22;11534;51.994;5.692;2023-05-10T04:21:30;13.70;99.90
22734;DHT22;11534;51.994;5.692;2023-05-10T04:23:55;13.60;99.90
22734;DHT22;11534;51.994;5.692;2023-05-10T04:26:21;13.60;99.90
22734;DHT22;11534;51.994;5.692;2023-05-10T04:28:47;13.70;99.90
22734;DHT22;11534;51.994;5.692;2023-05-10T04:31:13;13.60;99.90
22734;DHT22;11534;51.994;5.692;2023-05-10T04:33:38;13.60;99.90
22734;DHT22;11534;51.994;5.692;2023-05-10T04:36:04;13.60;99.90
22734;DHT22;11534;51.994;5.692;2023-05-10T04:38:30;13.60;99.90
22734;DHT22;11534;51.994;5.692;2023-05-10T04:41:07;13.60;99.90
22734;DHT22;11534;51.994;5.692;2023-05-10T04:43:33;13.60;99.90
22734;DHT22;11534;51.994;5.692;2023-05-10T04:45:58;13.60;99.90
22734;DHT22;11534;51.994;5.692;2023-05-10T04:48:24;13.60;99.90
22734;DHT22;11534;51.994;5.692;2023-05-10T04:50:50;13.60;99.90
22734;DHT22;11534;51.994;5.692;2023-05-10T04:53:15;13.60;99.90
22734;DHT22;11534;51.994;5.692;2023-05-10T04:55:41;13.60;99.90
22734;DHT22;11534;51.994;5.692;2023-05-10T04:58:06;13.60;99.90
22734;DHT22;11534;51.994;5.692;2023-05-10T05:00:33;13.60;99.90
22734;DHT22;11534;51.994;5.692;2023-05-10T05:02:59;13.60;99.90
22734;DHT22;11534;51.994;5.692;2023-05-10T05:05:25;13.50;99.90
22734;DHT22;11534;51.994;5.692;2023-05-10T05:07:50;13.60;99.90
22734;DHT22;11534;51.994;5.692;2023-05-10T05:10:16;13.60;99.90
22734;DHT22;11534;51.994;5.692;2023-05-10T05:12:42;13.60;99.90
22734;DHT22;11534;51.994;5.692;2023-05-10T05:15:07;13.60;99.90
22734;DHT22;11534;51.994;5.692;2023-05-10T05:17:36;13.60;99.90
22734;DHT22;11534;51.994;5.692;2023-05-10T05:20:02;13.60;99.90
22734;DHT22;11534;51.994;5.692;2023-05-10T05:22:28;13.70;99.90
22734;DHT22;11534;51.994;5.692;2023-05-10T05:24:55;13.70;99.90
22734;DHT22;11534;51.994;5.692;2023-05-10T05:27:22;13.70;99.90
22734;DHT22;11534;51.994;5.692;2023-05-10T05:29:50;13.70;99.90
22734;DHT22;11534;51.994;5.692;2023-05-10T05:32:16;13.70;99.90
22734;DHT22;11534;51.994;5.692;2023-05-10T05:34:43;13.70;99.90
22734;DHT22;11534;51.994;5.692;2023-05-10T05:37:16;13.70;99.90
22734;DHT22;11534;51.994;5.692;2023-05-10T05:39:42;13.80;99.90
22734;DHT22;11534;51.994;5.692;2023-05-10T05:42:09;13.80;99.90
22734;DHT22;11534;51.994;5.692;2023-05-10T05:44:35;13.80;99.90
22734;DHT22;11534;51.994;5.692;2023-05-10T05:47:00;13.80;99.90
22734;DHT22;11534;51.994;5.692;2023-05-10T05:49:26;13.70;99.90
22734;DHT22;11534;51.994;5.692;2023-05-10T05:51:52;13.70;99.90
22734;DHT22;11534;51.994;5.692;2023-05-10T05:54:17;13.70;99.90
22734;DHT22;11534;51.994;5.692;2023-05-10T05:56:43;13.70;99.90
22734;DHT22;11534;51.994;5.692;2023-05-10T05:59:10;13.80;99.90
22734;DHT22;11534;51.994;5.692;2023-05-10T06:01:36;13.80;99.90
22734;DHT22;11534;51.994;5.692;2023-05-10T06:04:01;13.80;99.90
22734;DHT22;11534;51.994;5.692;2023-05-10T06:06:27;13.80;99.90
22734;DHT22;11534;51.994;5.692;2023-05-10T06:08:53;13.80;99.90
22734;DHT22;11534;51.994;5.692;2023-05-10T06:11:19;13.80;99.90
22734;DHT22;11534;51.994;5.692;2023-05-10T06:13:45;13.80;99.90
22734;DHT22;11534;51.994;5.692;2023-05-10T06:16:12;13.80;99.90
22734;DHT22;11534;51.994;5.692;2023-05-10T06:18:38;13.80;99.90
22734;DHT22;11534;51.994;5.692;2023-05-10T06:21:04;13.80;99.90
22734;DHT22;11534;51.994;5.692;2023-05-10T06:23:30;13.80;99.90
22734;DHT22;11534;51.994;5.692;2023-05-10T06:25:55;13.80;99.90
22734;DHT22;11534;51.994;5.692;2023-05-10T06:28:21;13.90;99.90
22734;DHT22;11534;51.994;5.692;2023-05-10T06:30:47;13.90;99.90
22734;DHT22;11534;51.994;5.692;2023-05-10T06:33:13;13.90;99.90
22734;DHT22;11534;51.994;5.692;2023-05-10T06:35:38;13.90;99.90
22734;DHT22;11534;51.994;5.692;2023-05-10T06:38:04;13.90;99.90
22734;DHT22;11534;51.994;5.692;2023-05-10T06:40:30;13.90;99.90
22734;DHT22;11534;51.994;5.692;2023-05-10T06:42:56;13.90;99.90
22734;DHT22;11534;51.994;5.692;2023-05-10T06:45:21;13.90;99.90
22734;DHT22;11534;51.994;5.692;2023-05-10T06:47:47;14.00;99.90
22734;DHT22;11534;51.994;5.692;2023-05-10T06:50:12;14.00;99.90
22734;DHT22;11534;51.994;5.692;2023-05-10T06:52:38;14.00;99.90
22734;DHT22;11534;51.994;5.692;2023-05-10T06:55:04;14.00;99.90
22734;DHT22;11534;51.994;5.692;2023-05-10T06:57:30;14.00;99.90
22734;DHT22;11534;51.994;5.692;2023-05-10T06:59:57;14.00;99.90
22734;DHT22;11534;51.994;5.692;2023-05-10T07:02:23;14.00;99.90
22734;DHT22;11534;51.994;5.692;2023-05-10T07:04:49;14.00;99.90
22734;DHT22;11534;51.994;5.692;2023-05-10T07:07:16;13.90;99.90
22734;DHT22;11534;51.994;5.692;2023-05-10T07:09:42;13.90;99.90
22734;DHT22;11534;51.994;5.692;2023-05-10T07:12:07;13.90;99.90
22734;DHT22;11534;51.994;5.692;2023-05-10T07:14:33;13.90;99.90
22734;DHT22;11534;51.994;5.692;2023-05-10T07:16:59;13.90;99.90
22734;DHT22;11534;51.994;5.692;2023-05-10T07:19:24;13.90;99.90
22734;DHT22;11534;51.994;5.692;2023-05-10T07:21:50;14.00;99.90
22734;DHT22;11534;51.994;5.692;2023-05-10T07:24:16;14.00;99.90
22734;DHT22;11534;51.994;5.692;2023-05-10T07:26:41;13.90;99.90
22734;DHT22;11534;51.994;5.692;2023-05-10T07:29:07;13.90;99.90
22734;DHT22;11534;51.994;5.692;2023-05-10T07:31:33;13.90;99.90
22734;DHT22;11534;51.994;5.692;2023-05-10T07:33:58;14.00;99.90
22734;DHT22;11534;51.994;5.692;2023-05-10T07:36:24;14.10;99.90
22734;DHT22;11534;51.994;5.692;2023-05-10T07:38:49;14.10;99.90
22734;DHT22;11534;51.994;5.692;2023-05-10T07:41:15;14.10;99.90
22734;DHT22;11534;51.994;5.692;2023-05-10T07:43:41;14.10;99.90
22734;DHT22;11534;51.994;5.692;2023-05-10T07:46:06;14.10;99.90
22734;DHT22;11534;51.994;5.692;2023-05-10T07:48:32;14.10;99.90
22734;DHT22;11534;51.994;5.692;2023-05-10T07:50:58;14.10;99.90
22734;DHT22;11534;51.994;5.692;2023-05-10T07:53:26;14.10;99.90
22734;DHT22;11534;51.994;5.692;2023-05-10T07:55:57;14.10;99.90
22734;DHT22;11534;51.994;5.692;2023-05-10T07:58:24;14.10;99.90
22734;DHT22;11534;51.994;5.692;2023-05-10T08:00:50;14.00;99.90
22734;DHT22;11534;51.994;5.692;2023-05-10T08:03:16;14.00;99.90
22734;DHT22;11534;51.994;5.692;2023-05-10T08:05:41;14.10;99.90
22734;DHT22;11534;51.994;5.692;2023-05-10T08:08:07;14.10;99.90
22734;DHT22;11534;51.994;5.692;2023-05-10T08:10:33;14.10;99.90
22734;DHT22;11534;51.994;5.692;2023-05-10T08:12:58;14.10;99.90
22734;DHT22;11534;51.994;5.692;2023-05-10T08:15:24;14.20;99.90
22734;DHT22;11534;51.994;5.692;2023-05-10T08:17:52;14.20;99.90
22734;DHT22;11534;51.994;5.692;2023-05-10T08:20:17;14.20;99.90
22734;DHT22;11534;51.994;5.692;2023-05-10T08:22:45;14.20;99.90
22734;DHT22;11534;51.994;5.692;2023-05-10T08:25:11;14.20;99.90
22734;DHT22;11534;51.994;5.692;2023-05-10T08:27:36;14.30;99.90
22734;DHT22;11534;51.994;5.692;2023-05-10T08:30:02;14.30;99.90
22734;DHT22;11534;51.994;5.692;2023-05-10T08:32:28;14.30;99.90
22734;DHT22;11534;51.994;5.692;2023-05-10T08:34:54;14.30;99.90
22734;DHT22;11534;51.994;5.692;2023-05-10T08:37:22;14.40;99.90
22734;DHT22;11534;51.994;5.692;2023-05-10T08:39:48;14.40;99.90
22734;DHT22;11534;51.994;5.692;2023-05-10T08:42:16;14.50;99.90
22734;DHT22;11534;51.994;5.692;2023-05-10T08:44:45;14.50;99.90
22734;DHT22;11534;51.994;5.692;2023-05-10T08:47:13;14.60;99.90
22734;DHT22;11534;51.994;5.692;2023-05-10T08:49:41;14.70;99.90
22734;DHT22;11534;51.994;5.692;2023-05-10T08:52:08;14.70;99.90
22734;DHT22;11534;51.994;5.692;2023-05-10T08:54:35;14.90;99.90
22734;DHT22;11534;51.994;5.692;2023-05-10T08:57:01;15.00;99.90
22734;DHT22;11534;51.994;5.692;2023-05-10T08:59:27;15.10;99.90
22734;DHT22;11534;51.994;5.692;2023-05-10T09:01:55;15.20;99.90
22734;DHT22;11534;51.994;5.692;2023-05-10T09:04:21;15.30;99.90
22734;DHT22;11534;51.994;5.692;2023-05-10T09:06:46;15.20;99.90
22734;DHT22;11534;51.994;5.692;2023-05-10T09:09:12;15.20;99.90
22734;DHT22;11534;51.994;5.692;2023-05-10T09:11:38;15.20;99.90
22734;DHT22;11534;51.994;5.692;2023-05-10T09:14:04;15.20;99.90
22734;DHT22;11534;51.994;5.692;2023-05-10T09:16:30;15.30;99.90
22734;DHT22;11534;51.994;5.692;2023-05-10T09:18:56;15.20;99.90
22734;DHT22;11534;51.994;5.692;2023-05-10T09:21:21;15.20;99.90
22734;DHT22;11534;51.994;5.692;2023-05-10T09:23:47;15.20;99.90
22734;DHT22;11534;51.994;5.692;2023-05-10T09:26:15;15.20;99.90
22734;DHT22;11534;51.994;5.692;2023-05-10T09:31:16;15.10;99.90
22734;DHT22;11534;51.994;5.692;2023-05-10T09:33:46;15.10;99.90
22734;DHT22;11534;51.994;5.692;2023-05-10T09:36:12;15.20;99.90
22734;DHT22;11534;51.994;5.692;2023-05-10T09:38:49;15.20;99.90
22734;DHT22;11534;51.994;5.692;2023-05-10T09:41:22;15.20;99.90
22734;DHT22;11534;51.994;5.692;2023-05-10T09:43:48;15.30;99.90
22734;DHT22;11534;51.994;5.692;2023-05-10T09:46:15;15.40;99.90
22734;DHT22;11534;51.994;5.692;2023-05-10T09:48:43;15.30;99.90
22734;DHT22;11534;51.994;5.692;2023-05-10T09:51:09;15.30;99.90
22734;DHT22;11534;51.994;5.692;2023-05-10T09:53:35;15.40;99.90
22734;DHT22;11534;51.994;5.692;2023-05-10T09:56:01;15.40;99.90
22734;DHT22;11534;51.994;5.692;2023-05-10T09:58:27;15.40;99.90
22734;DHT22;11534;51.994;5.692;2023-05-10T10:00:53;15.40;99.90
22734;DHT22;11534;51.994;5.692;2023-05-10T10:03:22;15.50;99.90
22734;DHT22;11534;51.994;5.692;2023-05-10T10:05:49;15.50;99.90
22734;DHT22;11534;51.994;5.692;2023-05-10T10:08:15;15.50;99.90
22734;DHT22;11534;51.994;5.692;2023-05-10T10:10:41;15.60;99.90
22734;DHT22;11534;51.994;5.692;2023-05-10T10:13:09;15.60;99.90
22734;DHT22;11534;51.994;5.692;2023-05-10T10:15:35;15.70;99.90
22734;DHT22;11534;51.994;5.692;2023-05-10T10:18:01;15.70;99.90
22734;DHT22;11534;51.994;5.692;2023-05-10T10:20:27;15.60;99.90
22734;DHT22;11534;51.994;5.692;2023-05-10T10:22:53;15.60;99.90
22734;DHT22;11534;51.994;5.692;2023-05-10T10:25:20;15.60;99.90
22734;DHT22;11534;51.994;5.692;2023-05-10T10:35:33;15.50;99.90
22734;DHT22;11534;51.994;5.692;2023-05-10T10:38:00;15.50;99.90
22734;DHT22;11534;51.994;5.692;2023-05-10T10:40:31;15.50;99.90
22734;DHT22;11534;51.994;5.692;2023-05-10T10:42:57;15.60;99.90
22734;DHT22;11534;51.994;5.692;2023-05-10T10:45:24;15.50;99.90
22734;DHT22;11534;51.994;5.692;2023-05-10T10:48:21;15.60;99.90
22734;DHT22;11534;51.994;5.692;2023-05-10T10:50:47;15.80;99.90
22734;DHT22;11534;51.994;5.692;2023-05-10T10:53:21;15.80;99.90
22734;DHT22;11534;51.994;5.692;2023-05-10T10:55:47;15.80;99.90
22734;DHT22;11534;51.994;5.692;2023-05-10T10:58:29;15.80;99.90
22734;DHT22;11534;51.994;5.692;2023-05-10T11:01:18;15.80;99.90
22734;DHT22;11534;51.994;5.692;2023-05-10T11:06:34;15.90;99.90
22734;DHT22;11534;51.994;5.692;2023-05-10T11:09:08;15.90;99.90
22734;DHT22;11534;51.994;5.692;2023-05-10T11:11:35;16.00;99.90
22734;DHT22;11534;51.994;5.692;2023-05-10T11:14:06;16.00;99.90
22734;DHT22;11534;51.994;5.692;2023-05-10T11:16:43;16.00;99.90
22734;DHT22;11534;51.994;5.692;2023-05-10T11:19:13;16.10;99.90
22734;DHT22;11534;51.994;5.692;2023-05-10T11:21:51;16.10;99.90
22734;DHT22;11534;51.994;5.692;2023-05-10T11:24:22;16.20;99.90
22734;DHT22;11534;51.994;5.692;2023-05-10T11:26:51;16.10;99.90
22734;DHT22;11534;51.994;5.692;2023-05-10T11:29:17;16.20;99.90
22734;DHT22;11534;51.994;5.692;2023-05-10T11:31:47;16.10;99.90
22734;DHT22;11534;51.994;5.692;2023-05-10T11:34:30;16.20;99.90
22734;DHT22;11534;51.994;5.692;2023-05-10T11:36:57;16.20;99.90
22734;DHT22;11534;51.994;5.692;2023-05-10T11:39:30;16.10;99.90
22734;DHT22;11534;51.994;5.692;2023-05-10T11:41:57;16.20;99.90
22734;DHT22;11534;51.994;5.692;2023-05-10T11:44:24;16.30;99.90
22734;DHT22;11534;51.994;5.692;2023-05-10T11:46:54;16.40;99.90
22734;DHT22;11534;51.994;5.692;2023-05-10T11:49:20;16.50;99.90
22734;DHT22;11534;51.994;5.692;2023-05-10T11:51:48;16.50;99.90
22734;DHT22;11534;51.994;5.692;2023-05-10T11:54:14;16.50;99.90
22734;DHT22;11534;51.994;5.692;2023-05-10T11:56:40;16.60;99.90
22734;DHT22;11534;51.994;5.692;2023-05-10T11:59:06;16.70;99.90
22734;DHT22;11534;51.994;5.692;2023-05-10T12:01:33;16.70;99.90
22734;DHT22;11534;51.994;5.692;2023-05-10T12:03:59;16.80;99.90
22734;DHT22;11534;51.994;5.692;2023-05-10T12:06:32;16.80;99.90
22734;DHT22;11534;51.994;5.692;2023-05-10T12:09:06;16.80;99.90
22734;DHT22;11534;51.994;5.692;2023-05-10T12:11:37;16.80;99.90
22734;DHT22;11534;51.994;5.692;2023-05-10T12:14:04;16.80;99.90
22734;DHT22;11534;51.994;5.692;2023-05-10T12:16:30;16.90;99.90
22734;DHT22;11534;51.994;5.692;2023-05-10T12:18:57;17.00;99.90
22734;DHT22;11534;51.994;5.692;2023-05-10T12:21:24;17.10;99.90
22734;DHT22;11534;51.994;5.692;2023-05-10T12:23:52;17.20;99.90
22734;DHT22;11534;51.994;5.692;2023-05-10T12:26:18;17.20;99.90
22734;DHT22;11534;51.994;5.692;2023-05-10T12:28:49;17.30;99.90
22734;DHT22;11534;51.994;5.692;2023-05-10T12:31:15;17.50;99.90
22734;DHT22;11534;51.994;5.692;2023-05-10T12:33:44;17.60;99.90
22734;DHT22;11534;51.994;5.692;2023-05-10T12:36:13;17.80;99.90
22734;DHT22;11534;51.994;5.692;2023-05-10T12:38:43;17.90;99.90
22734;DHT22;11534;51.994;5.692;2023-05-10T12:41:11;18.00;99.90
22734;DHT22;11534;51.994;5.692;2023-05-10T12:43:37;18.10;99.90
22734;DHT22;11534;51.994;5.692;2023-05-10T12:46:11;18.10;99.90
22734;DHT22;11534;51.994;5.692;2023-05-10T12:48:38;18.00;99.90
22734;DHT22;11534;51.994;5.692;2023-05-10T12:51:04;18.00;99.90
22734;DHT22;11534;51.994;5.692;2023-05-10T12:53:30;18.10;99.90
22734;DHT22;11534;51.994;5.692;2023-05-10T12:55:56;18.10;99.90
22734;DHT22;11534;51.994;5.692;2023-05-10T12:58:22;18.10;99.90
22734;DHT22;11534;51.994;5.692;2023-05-10T13:00:48;17.90;99.90
22734;DHT22;11534;51.994;5.692;2023-05-10T13:03:14;17.90;99.90
22734;DHT22;11534;51.994;5.692;2023-05-10T13:05:41;17.80;99.90
22734;DHT22;11534;51.994;5.692;2023-05-10T13:08:06;17.70;99.90
22734;DHT22;11534;51.994;5.692;2023-05-10T13:10:32;17.70;99.90
22734;DHT22;11534;51.994;5.692;2023-05-10T13:12:58;17.60;99.90
22734;DHT22;11534;51.994;5.692;2023-05-10T13:15:24;17.40;99.90
22734;DHT22;11534;51.994;5.692;2023-05-10T13:17:50;17.30;99.90
22734;DHT22;11534;51.994;5.692;2023-05-10T13:20:16;17.10;99.90
22734;DHT22;11534;51.994;5.692;2023-05-10T13:22:43;16.90;99.90
22734;DHT22;11534;51.994;5.692;2023-05-10T13:25:09;16.70;99.90
22734;DHT22;11534;51.994;5.692;2023-05-10T13:27:36;16.60;99.90
22734;DHT22;11534;51.994;5.692;2023-05-10T13:30:03;16.40;99.90
22734;DHT22;11534;51.994;5.692;2023-05-10T13:32:29;16.30;99.90
22734;DHT22;11534;51.994;5.692;2023-05-10T13:34:55;16.20;99.90
22734;DHT22;11534;51.994;5.692;2023-05-10T13:37:21;16.20;99.90
22734;DHT22;11534;51.994;5.692;2023-05-10T13:39:47;16.00;99.90
22734;DHT22;11534;51.994;5.692;2023-05-10T13:42:13;15.80;99.90
22734;DHT22;11534;51.994;5.692;2023-05-10T13:44:38;15.80;99.90
22734;DHT22;11534;51.994;5.692;2023-05-10T13:47:04;15.70;99.90
22734;DHT22;11534;51.994;5.692;2023-05-10T13:49:30;15.70;99.90
22734;DHT22;11534;51.994;5.692;2023-05-10T13:51:56;15.70;99.90
22734;DHT22;11534;51.994;5.692;2023-05-10T13:54:24;15.60;99.90
22734;DHT22;11534;51.994;5.692;2023-05-10T13:56:50;15.60;99.90
22734;DHT22;11534;51.994;5.692;2023-05-10T13:59:15;15.60;99.90
22734;DHT22;11534;51.994;5.692;2023-05-10T14:01:41;15.50;99.90
22734;DHT22;11534;51.994;5.692;2023-05-10T14:04:08;15.30;99.90
22734;DHT22;11534;51.994;5.692;2023-05-10T14:06:36;15.30;99.90
22734;DHT22;11534;51.994;5.692;2023-05-10T14:09:02;15.20;99.90
22734;DHT22;11534;51.994;5.692;2023-05-10T14:11:28;15.20;99.90
22734;DHT22;11534;51.994;5.692;2023-05-10T14:13:53;15.10;99.90
22734;DHT22;11534;51.994;5.692;2023-05-10T14:16:19;15.10;99.90
22734;DHT22;11534;51.994;5.692;2023-05-10T14:18:45;15.10;99.90
22734;DHT22;11534;51.994;5.692;2023-05-10T14:21:11;15.00;99.90
22734;DHT22;11534;51.994;5.692;2023-05-10T14:23:37;15.00;99.90
22734;DHT22;11534;51.994;5.692;2023-05-10T14:26:03;15.00;99.90
22734;DHT22;11534;51.994;5.692;2023-05-10T14:28:28;15.00;99.90
22734;DHT22;11534;51.994;5.692;2023-05-10T14:30:54;15.10;99.90
22734;DHT22;11534;51.994;5.692;2023-05-10T14:33:20;15.10;99.90
22734;DHT22;11534;51.994;5.692;2023-05-10T14:35:46;15.10;99.90
22734;DHT22;11534;51.994;5.692;2023-05-10T14:38:12;15.10;99.90
22734;DHT22;11534;51.994;5.692;2023-05-10T14:40:38;15.10;99.90
22734;DHT22;11534;51.994;5.692;2023-05-10T14:43:03;15.20;99.90
22734;DHT22;11534;51.994;5.692;2023-05-10T14:45:29;15.20;99.90
22734;DHT22;11534;51.994;5.692;2023-05-10T14:47:55;15.30;99.90
22734;DHT22;11534;51.994;5.692;2023-05-10T14:50:20;15.40;99.90
22734;DHT22;11534;51.994;5.692;2023-05-10T14:52:46;15.40;99.90
22734;DHT22;11534;51.994;5.692;2023-05-10T14:55:12;15.40;99.90
22734;DHT22;11534;51.994;5.692;2023-05-10T14:57:37;15.50;99.90
22734;DHT22;11534;51.994;5.692;2023-05-10T15:00:03;15.50;99.90
22734;DHT22;11534;51.994;5.692;2023-05-10T15:02:30;15.60;99.90
22734;DHT22;11534;51.994;5.692;2023-05-10T15:04:56;15.60;99.90
22734;DHT22;11534;51.994;5.692;2023-05-10T15:07:23;15.60;99.90
22734;DHT22;11534;51.994;5.692;2023-05-10T15:09:49;15.70;99.90
22734;DHT22;11534;51.994;5.692;2023-05-10T15:12:15;15.70;99.90
22734;DHT22;11534;51.994;5.692;2023-05-10T15:14:41;15.60;99.90
22734;DHT22;11534;51.994;5.692;2023-05-10T15:17:06;15.60;99.90
22734;DHT22;11534;51.994;5.692;2023-05-10T15:19:33;15.60;99.90
22734;DHT22;11534;51.994;5.692;2023-05-10T15:21:58;15.50;99.90
22734;DHT22;11534;51.994;5.692;2023-05-10T15:24:24;15.50;99.90
22734;DHT22;11534;51.994;5.692;2023-05-10T15:26:50;15.50;99.90
22734;DHT22;11534;51.994;5.692;2023-05-10T15:29:16;15.60;99.90
22734;DHT22;11534;51.994;5.692;2023-05-10T15:31:49;15.60;99.90
22734;DHT22;11534;51.994;5.692;2023-05-10T15:34:16;15.60;99.90
22734;DHT22;11534;51.994;5.692;2023-05-10T15:36:42;15.70;99.90
22734;DHT22;11534;51.994;5.692;2023-05-10T15:39:07;15.70;99.90
22734;DHT22;11534;51.994;5.692;2023-05-10T15:41:35;15.70;99.90
22734;DHT22;11534;51.994;5.692;2023-05-10T15:44:01;15.70;99.90
22734;DHT22;11534;51.994;5.692;2023-05-10T15:46:27;15.70;99.90
22734;DHT22;11534;51.994;5.692;2023-05-10T15:48:53;15.60;99.90
22734;DHT22;11534;51.994;5.692;2023-05-10T15:51:19;15.70;99.90
22734;DHT22;11534;51.994;5.692;2023-05-10T15:53:45;15.70;99.90
22734;DHT22;11534;51.994;5.692;2023-05-10T15:56:11;15.80;99.90
22734;DHT22;11534;51.994;5.692;2023-05-10T15:58:40;15.90;99.90